sensor_id;sensor_type;location;lat;lon;timestamp;temperature;humidity
6377;DHT22;3221;48.858;10.128;2023-04-03T00:01:08;3.80;99.90
6377;DHT22;3221;48.858;10.128;2023-04-03T00:03:36;3.60;99.90
6377;DHT22;3221;48.858;10.128;2023-04-03T00:06:04;3.50;99.90
6377;DHT22;3221;48.858;10.128;2023-04-03T00:08:33;3.40;99.90
6377;DHT22;3221;48.858;10.128;2023-04-03T00:11:00;3.40;99.90
6377;DHT22;3221;48.858;10.128;2023-04-03T00:13:27;3.40;99.90
6377;DHT22;3221;48.858;10.128;2023-04-03T00:15:55;3.40;99.90
6377;DHT22;3221;48.858;10.128;2023-04-03T00:18:22;3.40;99.90
6377;DHT22;3221;48.858;10.128;2023-04-03T00:20:49;3.40;99.90
6377;DHT22;3221;48.858;10.128;2023-04-03T00:23:16;3.40;99.90
6377;DHT22;3221;48.858;10.128;2023-04-03T00:25:43;3.30;99.90
6377;DHT22;3221;48.858;10.128;2023-04-03T00:28:10;3.40;99.90
6377;DHT22;3221;48.858;10.128;2023-04-03T00:30:37;3.30;99.90
6377;DHT22;3221;48.858;10.128;2023-04-03T00:33:05;3.20;99.90
6377;DHT22;3221;48.858;10.128;2023-04-03T00:35:32;3.20;99.90
6377;DHT22;3221;48.858;10.128;2023-04-03T00:38:00;3.10;99.90
6377;DHT22;3221;48.858;10.128;2023-04-03T00:40:27;3.10;99.90
6377;DHT22;3221;48.858;10.128;2023-04-03T00:42:57;3.10;99.90
6377;DHT22;3221;48.858;10.128;2023-04-03T00:45:45;3.10;99.90
6377;DHT22;3221;48.858;10.128;2023-04-03T00:48:20;3.00;99.90
6377;DHT22;3221;48.858;10.128;2023-04-03T00:50:47;3.10;99.90
6377;DHT22;3221;48.858;10.128;2023-04-03T00:56:16;3.10;99.90
6377;DHT22;3221;48.858;10.128;2023-04-03T00:58:48;3.10;99.90
6377;DHT22;3221;48.858;10.128;2023-04-03T01:01:20;3.10;99.90
6377;DHT22;3221;48.858;10.128;2023-04-03T01:03:48;3.00;99.90
6377;DHT22;3221;48.858;10.128;2023-04-03T01:06:17;3.00;99.90
6377;DHT22;3221;48.858;10.128;2023-04-03T01:08:48;3.00;99.90
6377;DHT22;3221;48.858;10.128;2023-04-03T01:11:16;3.10;99.90
6377;DHT22;3221;48.858;10.128;2023-04-03T01:13:44;3.10;99.90
6377;DHT22;3221;48.858;10.128;2023-04-03T01:16:11;3.00;99.90
6377;DHT22;3221;48.858;10.128;2023-04-03T01:18:39;3.00;99.90
6377;DHT22;3221;48.858;10.128;2023-04-03T01:23:52;3.00;99.90
6377;DHT22;3221;48.858;10.128;2023-04-03T01:26:24;3.00;99.90
6377;DHT22;3221;48.858;10.128;2023-04-03T01:28:54;3.00;99.90
6377;DHT22;3221;48.858;10.128;2023-04-03T01:34:02;2.90;99.90
6377;DHT22;3221;48.858;10.128;2023-04-03T01:36:32;3.00;99.90
6377;DHT22;3221;48.858;10.128;2023-04-03T01:38:59;3.10;99.90
6377;DHT22;3221;48.858;10.128;2023-04-03T01:41:27;3.00;99.90
6377;DHT22;3221;48.858;10.128;2023-04-03T01:44:01;3.00;99.90
6377;DHT22;3221;48.858;10.128;2023-04-03T01:46:28;2.90;99.90
6377;DHT22;3221;48.858;10.128;2023-04-03T01:48:55;2.90;99.90
6377;DHT22;3221;48.858;10.128;2023-04-03T01:51:22;2.90;99.90
6377;DHT22;3221;48.858;10.128;2023-04-03T01:53:49;3.10;99.90
6377;DHT22;3221;48.858;10.128;2023-04-03T01:56:16;3.00;99.90
6377;DHT22;3221;48.858;10.128;2023-04-03T01:58:44;2.90;99.90
6377;DHT22;3221;48.858;10.128;2023-04-03T02:01:11;2.90;99.90
6377;DHT22;3221;48.858;10.128;2023-04-03T02:03:38;3.10;99.90
6377;DHT22;3221;48.858;10.128;2023-04-03T02:06:05;3.20;99.90
6377;DHT22;3221;48.858;10.128;2023-04-03T02:08:32;3.20;99.90
6377;DHT22;3221;48.858;10.128;2023-04-03T02:10:59;3.10;99.90
6377;DHT22;3221;48.858;10.128;2023-04-03T02:13:26;3.10;99.90
6377;DHT22;3221;48.858;10.128;2023-04-03T02:15:53;3.00;99.90
6377;DHT22;3221;48.858;10.128;2023-04-03T02:18:20;3.00;99.90
6377;DHT22;3221;48.858;10.128;2023-04-03T02:20:47;3.00;99.90
6377;DHT22;3221;48.858;10.128;2023-04-03T02:23:14;2.90;99.90
6377;DHT22;3221;48.858;10.128;2023-04-03T02:25:41;2.90;99.90
6377;DHT22;3221;48.858;10.128;2023-04-03T02:28:08;3.10;99.90
6377;DHT22;3221;48.858;10.128;2023-04-03T02:30:35;3.00;99.90
6377;DHT22;3221;48.858;10.128;2023-04-03T02:33:03;3.00;99.90
6377;DHT22;3221;48.858;10.128;2023-04-03T02:35:30;3.10;99.90
6377;DHT22;3221;48.858;10.128;2023-04-03T02:37:58;3.10;99.90
6377;DHT22;3221;48.858;10.128;2023-04-03T02:40:25;3.00;99.90
6377;DHT22;3221;48.858;10.128;2023-04-03T02:42:52;2.90;99.90
6377;DHT22;3221;48.858;10.128;2023-04-03T02:45:19;3.00;99.90
6377;DHT22;3221;48.858;10.128;2023-04-03T02:47:46;3.00;99.90
6377;DHT22;3221;48.858;10.128;2023-04-03T02:50:13;2.90;99.90
6377;DHT22;3221;48.858;10.128;2023-04-03T02:52:41;2.90;99.90
6377;DHT22;3221;48.858;10.128;2023-04-03T02:55:08;2.90;99.90
6377;DHT22;3221;48.858;10.128;2023-04-03T02:57:35;2.90;99.90
6377;DHT22;3221;48.858;10.128;2023-04-03T03:00:02;2.80;99.90
6377;DHT22;3221;48.858;10.128;2023-04-03T03:02:30;2.90;99.90
6377;DHT22;3221;48.858;10.128;2023-04-03T03:04:57;3.00;99.90
6377;DHT22;3221;48.858;10.128;2023-04-03T03:07:23;2.80;99.90
6377;DHT22;3221;48.858;10.128;2023-04-03T03:09:51;2.70;99.90
6377;DHT22;3221;48.858;10.128;2023-04-03T03:12:18;2.60;99.90
6377;DHT22;3221;48.858;10.128;2023-04-03T03:14:49;2.70;99.90
6377;DHT22;3221;48.858;10.128;2023-04-03T03:17:17;2.70;99.90
6377;DHT22;3221;48.858;10.128;2023-04-03T03:19:44;2.70;99.90
6377;DHT22;3221;48.858;10.128;2023-04-03T03:22:12;2.80;99.90
6377;DHT22;3221;48.858;10.128;2023-04-03T03:24:39;2.60;99.90
6377;DHT22;3221;48.858;10.128;2023-04-03T03:27:06;2.70;99.90
6377;DHT22;3221;48.858;10.128;2023-04-03T03:29:33;2.70;99.90
6377;DHT22;3221;48.858;10.128;2023-04-03T03:32:01;2.80;99.90
6377;DHT22;3221;48.858;10.128;2023-04-03T03:34:28;2.80;99.90
6377;DHT22;3221;48.858;10.128;2023-04-03T03:36:55;2.70;99.90
6377;DHT22;3221;48.858;10.128;2023-04-03T03:39:22;2.70;99.90
6377;DHT22;3221;48.858;10.128;2023-04-03T03:41:49;2.80;99.90
6377;DHT22;3221;48.858;10.128;2023-04-03T03:44:16;2.80;99.90
6377;DHT22;3221;48.858;10.128;2023-04-03T03:46:43;2.90;99.90
6377;DHT22;3221;48.858;10.128;2023-04-03T03:49:11;3.00;99.90
6377;DHT22;3221;48.858;10.128;2023-04-03T03:51:39;2.90;99.90
6377;DHT22;3221;48.858;10.128;2023-04-03T03:54:07;2.80;99.90
6377;DHT22;3221;48.858;10.128;2023-04-03T03:56:34;2.70;99.90
6377;DHT22;3221;48.858;10.128;2023-04-03T03:59:02;2.80;99.90
6377;DHT22;3221;48.858;10.128;2023-04-03T04:01:30;2.60;99.90
6377;DHT22;3221;48.858;10.128;2023-04-03T04:03:57;2.60;99.90
6377;DHT22;3221;48.858;10.128;2023-04-03T04:06:29;2.80;99.90
6377;DHT22;3221;48.858;10.128;2023-04-03T04:08:59;2.60;99.90
6377;DHT22;3221;48.858;10.128;2023-04-03T04:11:26;2.60;99.90
6377;DHT22;3221;48.858;10.128;2023-04-03T04:13:54;2.50;99.90
6377;DHT22;3221;48.858;10.128;2023-04-03T04:16:25;2.50;99.90
6377;DHT22;3221;48.858;10.128;2023-04-03T04:18:53;2.50;99.90
6377;DHT22;3221;48.858;10.128;2023-04-03T04:21:20;2.40;99.90
6377;DHT22;3221;48.858;10.128;2023-04-03T04:23:49;2.40;99.90
6377;DHT22;3221;48.858;10.128;2023-04-03T04:26:16;2.30;99.90
6377;DHT22;3221;48.858;10.128;2023-04-03T04:28:43;2.30;99.90
6377;DHT22;3221;48.858;10.128;2023-04-03T04:31:10;2.40;99.90
6377;DHT22;3221;48.858;10.128;2023-04-03T04:33:37;2.70;99.90
6377;DHT22;3221;48.858;10.128;2023-04-03T04:36:06;2.50;99.90
6377;DHT22;3221;48.858;10.128;2023-04-03T04:38:34;2.40;99.90
6377;DHT22;3221;48.858;10.128;2023-04-03T04:41:02;2.30;99.90
6377;DHT22;3221;48.858;10.128;2023-04-03T04:43:29;2.30;99.90
6377;DHT22;3221;48.858;10.128;2023-04-03T04:46:05;2.30;99.90
6377;DHT22;3221;48.858;10.128;2023-04-03T04:48:37;2.40;99.90
6377;DHT22;3221;48.858;10.128;2023-04-03T04:51:05;2.30;99.90
6377;DHT22;3221;48.858;10.128;2023-04-03T04:53:32;2.20;99.90
6377;DHT22;3221;48.858;10.128;2023-04-03T04:56:00;2.10;99.90
6377;DHT22;3221;48.858;10.128;2023-04-03T04:58:27;2.10;99.90
6377;DHT22;3221;48.858;10.128;2023-04-03T05:01:05;2.00;99.90
6377;DHT22;3221;48.858;10.128;2023-04-03T05:03:34;2.00;99.90
6377;DHT22;3221;48.858;10.128;2023-04-03T05:06:02;2.10;99.90
6377;DHT22;3221;48.858;10.128;2023-04-03T05:08:31;2.10;99.90
6377;DHT22;3221;48.858;10.128;2023-04-03T05:10:59;2.00;99.90
6377;DHT22;3221;48.858;10.128;2023-04-03T05:13:27;2.00;99.90
6377;DHT22;3221;48.858;10.128;2023-04-03T05:15:55;2.00;99.90
6377;DHT22;3221;48.858;10.128;2023-04-03T05:18:23;2.10;99.90
6377;DHT22;3221;48.858;10.128;2023-04-03T05:20:51;2.10;99.90
6377;DHT22;3221;48.858;10.128;2023-04-03T05:23:19;1.90;99.90
6377;DHT22;3221;48.858;10.128;2023-04-03T05:25:46;2.00;99.90
6377;DHT22;3221;48.858;10.128;2023-04-03T05:28:15;1.90;99.90
6377;DHT22;3221;48.858;10.128;2023-04-03T05:30:43;2.10;99.90
6377;DHT22;3221;48.858;10.128;2023-04-03T05:33:10;2.00;99.90
6377;DHT22;3221;48.858;10.128;2023-04-03T05:35:44;1.90;99.90
6377;DHT22;3221;48.858;10.128;2023-04-03T05:38:16;1.90;99.90
6377;DHT22;3221;48.858;10.128;2023-04-03T05:40:43;1.90;99.90
6377;DHT22;3221;48.858;10.128;2023-04-03T05:43:11;2.10;99.90
6377;DHT22;3221;48.858;10.128;2023-04-03T05:45:40;2.10;99.90
6377;DHT22;3221;48.858;10.128;2023-04-03T05:48:09;2.10;99.90
6377;DHT22;3221;48.858;10.128;2023-04-03T05:50:36;2.00;99.90
6377;DHT22;3221;48.858;10.128;2023-04-03T05:53:20;2.10;99.90
6377;DHT22;3221;48.858;10.128;2023-04-03T05:55:49;2.00;99.90
6377;DHT22;3221;48.858;10.128;2023-04-03T05:58:16;2.20;99.90
6377;DHT22;3221;48.858;10.128;2023-04-03T06:00:45;2.00;99.90
6377;DHT22;3221;48.858;10.128;2023-04-03T06:03:12;2.10;99.90
6377;DHT22;3221;48.858;10.128;2023-04-03T06:05:39;2.10;99.90
6377;DHT22;3221;48.858;10.128;2023-04-03T06:08:06;2.10;99.90
6377;DHT22;3221;48.858;10.128;2023-04-03T06:10:33;2.00;99.90
6377;DHT22;3221;48.858;10.128;2023-04-03T06:13:00;2.00;99.90
6377;DHT22;3221;48.858;10.128;2023-04-03T06:15:27;2.10;99.90
6377;DHT22;3221;48.858;10.128;2023-04-03T06:17:55;2.20;99.90
6377;DHT22;3221;48.858;10.128;2023-04-03T06:20:22;2.20;99.90
6377;DHT22;3221;48.858;10.128;2023-04-03T06:22:49;2.30;99.90
6377;DHT22;3221;48.858;10.128;2023-04-03T06:25:17;2.20;99.90
6377;DHT22;3221;48.858;10.128;2023-04-03T06:27:45;2.30;99.90
6377;DHT22;3221;48.858;10.128;2023-04-03T06:30:12;2.20;99.90
6377;DHT22;3221;48.858;10.128;2023-04-03T06:32:39;2.30;99.90
6377;DHT22;3221;48.858;10.128;2023-04-03T06:35:07;2.20;99.90
6377;DHT22;3221;48.858;10.128;2023-04-03T06:37:35;2.20;99.90
6377;DHT22;3221;48.858;10.128;2023-04-03T06:40:02;2.10;99.90
6377;DHT22;3221;48.858;10.128;2023-04-03T06:42:29;2.00;99.90
6377;DHT22;3221;48.858;10.128;2023-04-03T06:45:05;2.10;99.90
6377;DHT22;3221;48.858;10.128;2023-04-03T06:47:32;2.10;99.90
6377;DHT22;3221;48.858;10.128;2023-04-03T06:49:59;2.10;99.90
6377;DHT22;3221;48.858;10.128;2023-04-03T06:52:26;2.10;99.90
6377;DHT22;3221;48.858;10.128;2023-04-03T06:54:54;2.10;99.90
6377;DHT22;3221;48.858;10.128;2023-04-03T06:57:23;2.10;99.90
6377;DHT22;3221;48.858;10.128;2023-04-03T06:59:51;2.20;99.90
6377;DHT22;3221;48.858;10.128;2023-04-03T07:02:18;2.20;99.90
6377;DHT22;3221;48.858;10.128;2023-04-03T07:04:45;2.20;99.90
6377;DHT22;3221;48.858;10.128;2023-04-03T07:07:12;2.20;99.90
6377;DHT22;3221;48.858;10.128;2023-04-03T07:09:39;2.20;99.90
6377;DHT22;3221;48.858;10.128;2023-04-03T07:12:06;2.30;99.90
6377;DHT22;3221;48.858;10.128;2023-04-03T07:14:33;2.20;99.90
6377;DHT22;3221;48.858;10.128;2023-04-03T07:17:01;2.30;99.90
6377;DHT22;3221;48.858;10.128;2023-04-03T07:19:28;2.50;99.90
6377;DHT22;3221;48.858;10.128;2023-04-03T07:21:54;2.40;99.90
6377;DHT22;3221;48.858;10.128;2023-04-03T07:24:21;2.20;99.90
6377;DHT22;3221;48.858;10.128;2023-04-03T07:26:54;2.20;99.90
6377;DHT22;3221;48.858;10.128;2023-04-03T07:29:23;2.30;99.90
6377;DHT22;3221;48.858;10.128;2023-04-03T07:31:50;2.20;99.90
6377;DHT22;3221;48.858;10.128;2023-04-03T07:34:17;2.40;99.90
6377;DHT22;3221;48.858;10.128;2023-04-03T07:36:44;2.40;99.90
6377;DHT22;3221;48.858;10.128;2023-04-03T07:39:11;2.40;99.90
6377;DHT22;3221;48.858;10.128;2023-04-03T07:41:38;2.50;99.90
6377;DHT22;3221;48.858;10.128;2023-04-03T07:44:05;2.40;99.90
6377;DHT22;3221;48.858;10.128;2023-04-03T07:46:32;2.40;99.90
6377;DHT22;3221;48.858;10.128;2023-04-03T07:48:59;2.50;99.90
6377;DHT22;3221;48.858;10.128;2023-04-03T07:51:26;2.30;99.90
6377;DHT22;3221;48.858;10.128;2023-04-03T07:53:53;2.40;99.90
6377;DHT22;3221;48.858;10.128;2023-04-03T07:56:20;2.30;99.90
6377;DHT22;3221;48.858;10.128;2023-04-03T07:58:47;2.30;99.90
6377;DHT22;3221;48.858;10.128;2023-04-03T08:01:14;2.30;99.90
6377;DHT22;3221;48.858;10.128;2023-04-03T08:03:41;2.40;99.90
6377;DHT22;3221;48.858;10.128;2023-04-03T08:06:08;2.50;99.90
6377;DHT22;3221;48.858;10.128;2023-04-03T08:08:44;2.50;99.90
6377;DHT22;3221;48.858;10.128;2023-04-03T08:11:12;2.30;99.90
6377;DHT22;3221;48.858;10.128;2023-04-03T08:13:39;2.40;99.90
6377;DHT22;3221;48.858;10.128;2023-04-03T08:16:14;2.70;99.90
6377;DHT22;3221;48.858;10.128;2023-04-03T08:18:42;2.70;99.90
6377;DHT22;3221;48.858;10.128;2023-04-03T08:21:10;2.70;99.90
6377;DHT22;3221;48.858;10.128;2023-04-03T08:23:38;2.60;99.90
6377;DHT22;3221;48.858;10.128;2023-04-03T08:26:10;2.70;99.90
6377;DHT22;3221;48.858;10.128;2023-04-03T08:28:38;2.80;99.90
6377;DHT22;3221;48.858;10.128;2023-04-03T08:31:08;2.90;99.90
6377;DHT22;3221;48.858;10.128;2023-04-03T08:33:38;2.70;99.90
6377;DHT22;3221;48.858;10.128;2023-04-03T08:36:06;2.50;99.90
6377;DHT22;3221;48.858;10.128;2023-04-03T08:38:34;2.60;99.90
6377;DHT22;3221;48.858;10.128;2023-04-03T08:46:56;2.60;99.90
6377;DHT22;3221;48.858;10.128;2023-04-03T08:49:31;2.60;99.90
6377;DHT22;3221;48.858;10.128;2023-04-03T08:52:01;2.50;99.90
6377;DHT22;3221;48.858;10.128;2023-04-03T08:55:03;2.70;99.90
6377;DHT22;3221;48.858;10.128;2023-04-03T08:57:40;2.60;99.90
6377;DHT22;3221;48.858;10.128;2023-04-03T09:00:19;2.60;99.90
6377;DHT22;3221;48.858;10.128;2023-04-03T09:02:52;2.50;99.90
6377;DHT22;3221;48.858;10.128;2023-04-03T09:08:00;2.90;99.90
6377;DHT22;3221;48.858;10.128;2023-04-03T09:10:30;2.80;99.90
6377;DHT22;3221;48.858;10.128;2023-04-03T09:13:12;2.60;99.90
6377;DHT22;3221;48.858;10.128;2023-04-03T09:15:40;3.00;99.90
6377;DHT22;3221;48.858;10.128;2023-04-03T09:23:51;3.00;99.90
6377;DHT22;3221;48.858;10.128;2023-04-03T09:26:36;2.90;99.90
6377;DHT22;3221;48.858;10.128;2023-04-03T09:29:07;2.90;99.90
6377;DHT22;3221;48.858;10.128;2023-04-03T09:31:40;2.90;99.90
6377;DHT22;3221;48.858;10.128;2023-04-03T09:34:37;3.00;99.90
6377;DHT22;3221;48.858;10.128;2023-04-03T09:37:04;3.00;99.90
6377;DHT22;3221;48.858;10.128;2023-04-03T09:39:52;3.00;99.90
6377;DHT22;3221;48.858;10.128;2023-04-03T09:42:24;3.00;99.90
6377;DHT22;3221;48.858;10.128;2023-04-03T09:45:05;3.00;99.90
6377;DHT22;3221;48.858;10.128;2023-04-03T09:47:36;3.10;99.90
6377;DHT22;3221;48.858;10.128;2023-04-03T09:52:44;3.00;99.90
6377;DHT22;3221;48.858;10.128;2023-04-03T09:55:26;3.00;99.90
6377;DHT22;3221;48.858;10.128;2023-04-03T09:58:02;3.00;99.90
6377;DHT22;3221;48.858;10.128;2023-04-03T10:02:59;3.10;99.90
6377;DHT22;3221;48.858;10.128;2023-04-03T10:05:38;3.20;99.90
6377;DHT22;3221;48.858;10.128;2023-04-03T10:08:10;3.20;99.90
6377;DHT22;3221;48.858;10.128;2023-04-03T10:10:38;3.20;99.90
6377;DHT22;3221;48.858;10.128;2023-04-03T10:13:06;3.30;99.90
6377;DHT22;3221;48.858;10.128;2023-04-03T10:15:47;3.30;99.90
6377;DHT22;3221;48.858;10.128;2023-04-03T10:18:45;3.20;99.90
6377;DHT22;3221;48.858;10.128;2023-04-03T10:35:16;3.20;99.90
6377;DHT22;3221;48.858;10.128;2023-04-03T10:40:34;3.30;99.90
6377;DHT22;3221;48.858;10.128;2023-04-03T10:43:34;3.30;99.90
6377;DHT22;3221;48.858;10.128;2023-04-03T10:46:16;3.30;99.90
6377;DHT22;3221;48.858;10.128;2023-04-03T10:49:05;3.30;99.90
6377;DHT22;3221;48.858;10.128;2023-04-03T10:51:58;3.20;99.90
6377;DHT22;3221;48.858;10.128;2023-04-03T10:57:19;3.30;99.90
6377;DHT22;3221;48.858;10.128;2023-04-03T11:00:01;3.40;99.90
6377;DHT22;3221;48.858;10.128;2023-04-03T11:05:32;3.30;99.90
6377;DHT22;3221;48.858;10.128;2023-04-03T11:11:00;3.50;99.90
6377;DHT22;3221;48.858;10.128;2023-04-03T11:13:41;3.70;99.90
6377;DHT22;3221;48.858;10.128;2023-04-03T11:16:16;3.60;99.90
6377;DHT22;3221;48.858;10.128;2023-04-03T11:19:10;3.60;99.90
6377;DHT22;3221;48.858;10.128;2023-04-03T11:21:46;3.60;99.90
6377;DHT22;3221;48.858;10.128;2023-04-03T11:24:20;3.50;99.90
6377;DHT22;3221;48.858;10.128;2023-04-03T11:26:49;3.60;99.90
6377;DHT22;3221;48.858;10.128;2023-04-03T11:29:24;3.50;99.90
6377;DHT22;3221;48.858;10.128;2023-04-03T11:34:55;3.90;99.90
6377;DHT22;3221;48.858;10.128;2023-04-03T11:37:39;4.00;99.90
6377;DHT22;3221;48.858;10.128;2023-04-03T11:40:28;4.00;99.90
6377;DHT22;3221;48.858;10.128;2023-04-03T11:46:18;4.00;99.90
6377;DHT22;3221;48.858;10.128;2023-04-03T11:53:38;4.10;99.90
6377;DHT22;3221;48.858;10.128;2023-04-03T12:04:20;4.40;99.90
6377;DHT22;3221;48.858;10.128;2023-04-03T12:11:48;4.50;99.90
6377;DHT22;3221;48.858;10.128;2023-04-03T12:14:16;4.30;99.90
6377;DHT22;3221;48.858;10.128;2023-04-03T12:16:47;4.50;99.90
6377;DHT22;3221;48.858;10.128;2023-04-03T12:24:29;4.20;99.90
6377;DHT22;3221;48.858;10.128;2023-04-03T12:27:32;4.20;99.90
6377;DHT22;3221;48.858;10.128;2023-04-03T12:30:12;4.10;99.90
6377;DHT22;3221;48.858;10.128;2023-04-03T12:35:46;4.10;99.90
6377;DHT22;3221;48.858;10.128;2023-04-03T12:41:25;4.20;99.90
6377;DHT22;3221;48.858;10.128;2023-04-03T12:44:03;4.30;99.90
6377;DHT22;3221;48.858;10.128;2023-04-03T12:46:45;4.30;99.90
6377;DHT22;3221;48.858;10.128;2023-04-03T12:51:58;4.30;99.90
6377;DHT22;3221;48.858;10.128;2023-04-03T12:54:38;4.10;99.90
6377;DHT22;3221;48.858;10.128;2023-04-03T12:59:42;4.00;99.90
6377;DHT22;3221;48.858;10.128;2023-04-03T13:02:24;4.20;99.90
6377;DHT22;3221;48.858;10.128;2023-04-03T13:04:53;4.10;99.90
6377;DHT22;3221;48.858;10.128;2023-04-03T13:07:30;4.10;99.90
6377;DHT22;3221;48.858;10.128;2023-04-03T13:12:35;4.20;99.90
6377;DHT22;3221;48.858;10.128;2023-04-03T13:15:13;4.20;99.90
6377;DHT22;3221;48.858;10.128;2023-04-03T13:17:42;4.20;99.90
6377;DHT22;3221;48.858;10.128;2023-04-03T13:20:12;4.20;99.90
6377;DHT22;3221;48.858;10.128;2023-04-03T13:22:48;4.20;99.90
6377;DHT22;3221;48.858;10.128;2023-04-03T13:25:17;4.00;99.90
6377;DHT22;3221;48.858;10.128;2023-04-03T13:27:45;3.90;99.90
6377;DHT22;3221;48.858;10.128;2023-04-03T13:30:30;4.00;99.90
6377;DHT22;3221;48.858;10.128;2023-04-03T13:33:01;4.10;99.90
6377;DHT22;3221;48.858;10.128;2023-04-03T13:35:38;4.30;99.90
6377;DHT22;3221;48.858;10.128;2023-04-03T13:40:57;4.20;99.90
6377;DHT22;3221;48.858;10.128;2023-04-03T13:43:29;4.20;99.90
6377;DHT22;3221;48.858;10.128;2023-04-03T13:48:43;4.20;99.90
6377;DHT22;3221;48.858;10.128;2023-04-03T13:54:00;4.40;99.90
6377;DHT22;3221;48.858;10.128;2023-04-03T13:56:33;4.70;99.90
6377;DHT22;3221;48.858;10.128;2023-04-03T14:06:42;4.70;99.90
6377;DHT22;3221;48.858;10.128;2023-04-03T14:09:09;4.80;99.90
6377;DHT22;3221;48.858;10.128;2023-04-03T14:11:36;4.70;99.90
6377;DHT22;3221;48.858;10.128;2023-04-03T14:14:14;4.60;99.90
6377;DHT22;3221;48.858;10.128;2023-04-03T14:16:43;4.50;99.90
6377;DHT22;3221;48.858;10.128;2023-04-03T14:19:23;4.60;99.90
6377;DHT22;3221;48.858;10.128;2023-04-03T14:21:50;4.70;99.90
6377;DHT22;3221;48.858;10.128;2023-04-03T14:24:19;4.80;99.90
6377;DHT22;3221;48.858;10.128;2023-04-03T14:26:48;4.90;99.90
6377;DHT22;3221;48.858;10.128;2023-04-03T14:29:16;5.10;99.90
6377;DHT22;3221;48.858;10.128;2023-04-03T14:31:45;5.10;99.90
6377;DHT22;3221;48.858;10.128;2023-04-03T14:34:14;5.20;99.90
6377;DHT22;3221;48.858;10.128;2023-04-03T14:36:43;5.10;99.90
6377;DHT22;3221;48.858;10.128;2023-04-03T14:39:16;5.20;99.90
6377;DHT22;3221;48.858;10.128;2023-04-03T14:41:44;5.00;99.90
6377;DHT22;3221;48.858;10.128;2023-04-03T14:44:11;5.10;99.90
6377;DHT22;3221;48.858;10.128;2023-04-03T14:46:41;5.00;99.90
6377;DHT22;3221;48.858;10.128;2023-04-03T14:49:17;4.90;99.90
6377;DHT22;3221;48.858;10.128;2023-04-03T14:51:45;4.80;99.90
6377;DHT22;3221;48.858;10.128;2023-04-03T14:54:14;4.60;99.90
6377;DHT22;3221;48.858;10.128;2023-04-03T14:56:42;4.60;99.90
6377;DHT22;3221;48.858;10.128;2023-04-03T14:59:11;4.80;99.90
6377;DHT22;3221;48.858;10.128;2023-04-03T15:01:39;5.00;99.90
6377;DHT22;3221;48.858;10.128;2023-04-03T15:04:20;5.10;99.90
6377;DHT22;3221;48.858;10.128;2023-04-03T15:06:48;5.10;99.90
6377;DHT22;3221;48.858;10.128;2023-04-03T15:09:21;5.20;99.90
6377;DHT22;3221;48.858;10.128;2023-04-03T15:11:50;5.10;99.90
6377;DHT22;3221;48.858;10.128;2023-04-03T15:14:17;5.00;99.90
6377;DHT22;3221;48.858;10.128;2023-04-03T15:17:04;4.90;99.90
6377;DHT22;3221;48.858;10.128;2023-04-03T15:19:39;5.00;99.90
6377;DHT22;3221;48.858;10.128;2023-04-03T15:22:06;5.20;99.90
6377;DHT22;3221;48.858;10.128;2023-04-03T15:24:33;5.20;99.90
6377;DHT22;3221;48.858;10.128;2023-04-03T15:27:01;5.30;99.90
6377;DHT22;3221;48.858;10.128;2023-04-03T15:29:30;5.30;99.90
6377;DHT22;3221;48.858;10.128;2023-04-03T15:31:57;5.30;99.90
6377;DHT22;3221;48.858;10.128;2023-04-03T15:34:24;5.30;99.90
6377;DHT22;3221;48.858;10.128;2023-04-03T15:36:51;5.20;99.90
6377;DHT22;3221;48.858;10.128;2023-04-03T15:39:20;5.10;99.90
6377;DHT22;3221;48.858;10.128;2023-04-03T15:41:47;5.00;99.90
6377;DHT22;3221;48.858;10.128;2023-04-03T15:44:14;5.10;99.90
6377;DHT22;3221;48.858;10.128;2023-04-03T15:46:45;5.00;99.90
6377;DHT22;3221;48.858;10.128;2023-04-03T15:49:12;4.80;99.90
6377;DHT22;3221;48.858;10.128;2023-04-03T15:51:39;4.70;99.90
6377;DHT22;3221;48.858;10.128;2023-04-03T15:54:07;4.80;99.90
6377;DHT22;3221;48.858;10.128;2023-04-03T15:56:34;4.70;99.90
6377;DHT22;3221;48.858;10.128;2023-04-03T15:59:01;4.70;99.90
6377;DHT22;3221;48.858;10.128;2023-04-03T16:01:27;4.60;99.90
6377;DHT22;3221;48.858;10.128;2023-04-03T16:03:54;4.60;99.90
6377;DHT22;3221;48.858;10.128;2023-04-03T16:06:24;4.50;99.90
6377;DHT22;3221;48.858;10.128;2023-04-03T16:08:51;4.50;99.90
6377;DHT22;3221;48.858;10.128;2023-04-03T16:11:26;4.70;99.90
6377;DHT22;3221;48.858;10.128;2023-04-03T16:13:54;4.50;99.90
6377;DHT22;3221;48.858;10.128;2023-04-03T16:16:22;4.60;99.90
6377;DHT22;3221;48.858;10.128;2023-04-03T16:18:50;4.70;99.90
6377;DHT22;3221;48.858;10.128;2023-04-03T16:21:17;4.70;99.90
6377;DHT22;3221;48.858;10.128;2023-04-03T16:23:44;4.70;99.90
6377;DHT22;3221;48.858;10.128;2023-04-03T16:26:11;4.60;99.90
6377;DHT22;3221;48.858;10.128;2023-04-03T16:28:38;4.50;99.90
6377;DHT22;3221;48.858;10.128;2023-04-03T16:31:07;4.40;99.90
6377;DHT22;3221;48.858;10.128;2023-04-03T16:33:34;4.30;99.90
6377;DHT22;3221;48.858;10.128;2023-04-03T16:36:03;4.30;99.90
6377;DHT22;3221;48.858;10.128;2023-04-03T16:38:30;4.40;99.90
6377;DHT22;3221;48.858;10.128;2023-04-03T16:40:57;4.40;99.90
6377;DHT22;3221;48.858;10.128;2023-04-03T16:43:26;4.40;99.90
6377;DHT22;3221;48.858;10.128;2023-04-03T16:45:53;4.40;99.90
6377;DHT22;3221;48.858;10.128;2023-04-03T16:48:20;4.30;99.90
6377;DHT22;3221;48.858;10.128;2023-04-03T16:50:48;4.20;99.90
6377;DHT22;3221;48.858;10.128;2023-04-03T16:53:23;4.20;99.90
6377;DHT22;3221;48.858;10.128;2023-04-03T16:55:50;4.20;99.90
6377;DHT22;3221;48.858;10.128;2023-04-03T16:58:17;4.10;99.90
6377;DHT22;3221;48.858;10.128;2023-04-03T17:00:44;4.10;99.90
6377;DHT22;3221;48.858;10.128;2023-04-03T17:03:11;4.20;99.90
6377;DHT22;3221;48.858;10.128;2023-04-03T17:05:38;4.10;99.90
6377;DHT22;3221;48.858;10.128;2023-04-03T17:08:05;4.20;99.90
6377;DHT22;3221;48.858;10.128;2023-04-03T17:10:32;4.30;99.90
6377;DHT22;3221;48.858;10.128;2023-04-03T17:13:01;4.20;99.90
6377;DHT22;3221;48.858;10.128;2023-04-03T17:15:28;4.10;99.90
6377;DHT22;3221;48.858;10.128;2023-04-03T17:17:55;4.10;99.90
6377;DHT22;3221;48.858;10.128;2023-04-03T17:20:22;4.10;99.90
6377;DHT22;3221;48.858;10.128;2023-04-03T17:22:49;4.10;99.90
6377;DHT22;3221;48.858;10.128;2023-04-03T17:25:16;4.10;99.90
6377;DHT22;3221;48.858;10.128;2023-04-03T17:27:43;4.20;99.90
6377;DHT22;3221;48.858;10.128;2023-04-03T17:30:11;4.20;99.90
6377;DHT22;3221;48.858;10.128;2023-04-03T17:32:38;4.10;99.90
6377;DHT22;3221;48.858;10.128;2023-04-03T17:35:06;4.10;99.90
6377;DHT22;3221;48.858;10.128;2023-04-03T17:37:36;4.00;99.90
6377;DHT22;3221;48.858;10.128;2023-04-03T17:40:03;4.00;99.90
6377;DHT22;3221;48.858;10.128;2023-04-03T17:42:30;4.00;99.90
6377;DHT22;3221;48.858;10.128;2023-04-03T17:44:58;4.00;99.90
6377;DHT22;3221;48.858;10.128;2023-04-03T17:47:26;4.00;99.90
6377;DHT22;3221;48.858;10.128;2023-04-03T17:49:53;4.10;99.90
6377;DHT22;3221;48.858;10.128;2023-04-03T17:52:20;4.10;99.90
6377;DHT22;3221;48.858;10.128;2023-04-03T17:54:51;4.00;99.90
6377;DHT22;3221;48.858;10.128;2023-04-03T17:57:17;4.00;99.90
6377;DHT22;3221;48.858;10.128;2023-04-03T17:59:45;3.90;99.90
6377;DHT22;3221;48.858;10.128;2023-04-03T18:02:12;3.90;99.90
6377;DHT22;3221;48.858;10.128;2023-04-03T18:04:39;3.90;99.90
6377;DHT22;3221;48.858;10.128;2023-04-03T18:07:06;3.80;99.90
6377;DHT22;3221;48.858;10.128;2023-04-03T18:09:36;3.80;99.90
6377;DHT22;3221;48.858;10.128;2023-04-03T18:12:05;3.80;99.90